Time;durP1;ratioP1;P1;durP2;ratioP2;P2;SDS_P1;SDS_P2;PMS_P1;PMS_P2;Temp;Humidity;BMP_temperature;BMP_pressure;BME280_temperature;BME280_humidity;BME280_pressure;Samples;Min_cycle;Max_cycle;Signal;HPM_P1;HPM_P2
2024/01/27 00:00:06;;;;;;;;;;;5.50;99.90;;;;;;5075814;27;20050;-79
2024/01/27 00:02:31;;;;;;;;;;;5.40;99.90;;;;;;5092556;28;19971;-80
2024/01/27 00:04:57;;;;;;;;;;;5.40;99.90;;;;;;5094111;28;19974;-80
2024/01/27 00:07:28;;;;;;;;;;;5.80;99.90;;;;;;5092228;28;20311;-79
2024/01/27 00:09:55;;;;;;;;;;;5.40;99.90;;;;;;5078846;28;19927;-79
2024/01/27 00:12:20;;;;;;;;;;;5.50;99.90;;;;;;5094819;28;19973;-79
2024/01/27 00:14:46;;;;;;;;;;;5.70;99.90;;;;;;5077189;28;19928;-78
2024/01/27 00:17:12;;;;;;;;;;;5.60;99.90;;;;;;5092464;28;20011;-78
2024/01/27 00:19:37;;;;;;;;;;;5.80;99.90;;;;;;5075092;28;20297;-79
2024/01/27 00:22:03;;;;;;;;;;;5.90;99.90;;;;;;5095404;28;19974;-79
2024/01/27 00:24:29;;;;;;;;;;;5.70;99.90;;;;;;5096728;27;19937;-79
2024/01/27 00:26:54;;;;;;;;;;;6.10;99.90;;;;;;5096580;28;19931;-79
2024/01/27 00:29:20;;;;;;;;;;;6.00;99.90;;;;;;5110172;27;19927;-79
2024/01/27 00:31:46;;;;;;;;;;;5.70;99.90;;;;;;5096026;28;19946;-79
2024/01/27 00:34:11;;;;;;;;;;;5.40;99.90;;;;;;5094491;28;19963;-79
2024/01/27 00:36:37;;;;;;;;;;;5.40;99.90;;;;;;5058051;28;19945;-78
2024/01/27 00:39:06;;;;;;;;;;;5.30;99.90;;;;;;5111834;27;19983;-79
2024/01/27 00:41:33;;;;;;;;;;;5.40;99.90;;;;;;5095272;28;19982;-78
2024/01/27 00:43:58;;;;;;;;;;;5.70;99.90;;;;;;5093752;28;20371;-79
2024/01/27 00:46:24;;;;;;;;;;;5.70;99.90;;;;;;5095069;28;19991;-79
2024/01/27 00:48:50;;;;;;;;;;;5.30;99.90;;;;;;5095134;28;20382;-79
2024/01/27 00:51:15;;;;;;;;;;;5.30;99.90;;;;;;5061571;28;19962;-79
2024/01/27 00:53:41;;;;;;;;;;;5.30;99.90;;;;;;5094783;28;19920;-78
2024/01/27 00:56:06;;;;;;;;;;;5.50;99.90;;;;;;5098687;28;19924;-79
2024/01/27 00:58:33;;;;;;;;;;;5.30;99.90;;;;;;5113689;27;19920;-79
2024/01/27 01:00:59;;;;;;;;;;;5.50;99.90;;;;;;5094070;28;20014;-78
2024/01/27 01:03:25;;;;;;;;;;;5.30;99.90;;;;;;5077557;28;19975;-78
2024/01/27 01:05:50;;;;;;;;;;;5.50;99.90;;;;;;5099167;28;19924;-79
2024/01/27 01:08:16;;;;;;;;;;;5.70;99.90;;;;;;5099955;28;19983;-78
2024/01/27 01:10:41;;;;;;;;;;;5.30;99.90;;;;;;5075667;28;19924;-77
2024/01/27 01:13:07;;;;;;;;;;;5.50;99.90;;;;;;5096836;28;20395;-78
2024/01/27 01:15:34;;;;;;;;;;;5.30;99.90;;;;;;5095906;28;19927;-78
2024/01/27 01:17:59;;;;;;;;;;;5.30;99.90;;;;;;5108433;28;19932;-79
2024/01/27 01:20:26;;;;;;;;;;;5.30;99.90;;;;;;5092200;28;19977;-79
2024/01/27 01:22:52;;;;;;;;;;;5.60;99.90;;;;;;5088764;28;19923;-79
2024/01/27 01:25:18;;;;;;;;;;;5.30;99.90;;;;;;5093710;28;19928;-78
2024/01/27 01:27:45;;;;;;;;;;;5.70;99.90;;;;;;5090525;28;19928;-79
2024/01/27 01:30:10;;;;;;;;;;;5.40;99.90;;;;;;5080031;28;19928;-79
2024/01/27 01:32:36;;;;;;;;;;;5.30;99.90;;;;;;5116402;28;19924;-79
2024/01/27 01:35:02;;;;;;;;;;;5.40;99.90;;;;;;5117382;28;19920;-77
2024/01/27 01:37:27;;;;;;;;;;;5.60;99.90;;;;;;5094422;28;19928;-78
2024/01/27 01:39:54;;;;;;;;;;;5.30;99.90;;;;;;5076554;28;19931;-80
2024/01/27 01:42:23;;;;;;;;;;;5.40;99.90;;;;;;5089543;28;20329;-79
2024/01/27 01:44:48;;;;;;;;;;;5.20;99.90;;;;;;5074030;28;20247;-78
2024/01/27 01:47:14;;;;;;;;;;;5.30;99.90;;;;;;5077067;28;19931;-79
2024/01/27 01:49:43;;;;;;;;;;;5.30;99.90;;;;;;5091474;28;19978;-79
2024/01/27 01:52:09;;;;;;;;;;;5.50;99.90;;;;;;5090487;28;20504;-79
2024/01/27 01:54:34;;;;;;;;;;;5.60;99.90;;;;;;5070263;28;19935;-79
2024/01/27 01:57:00;;;;;;;;;;;5.40;99.90;;;;;;5091053;28;19923;-78
2024/01/27 01:59:26;;;;;;;;;;;5.20;99.90;;;;;;5093316;28;20251;-79
2024/01/27 02:01:51;;;;;;;;;;;5.40;99.90;;;;;;5076068;28;19927;-80
2024/01/27 02:04:17;;;;;;;;;;;5.20;99.90;;;;;;5074129;27;20023;-79
2024/01/27 02:06:43;;;;;;;;;;;5.30;99.90;;;;;;5089684;28;19985;-79
2024/01/27 02:09:09;;;;;;;;;;;5.20;99.90;;;;;;5091095;28;20084;-79
2024/01/27 02:11:35;;;;;;;;;;;5.60;99.90;;;;;;5090891;28;19962;-78
2024/01/27 02:14:02;;;;;;;;;;;5.60;99.90;;;;;;5072848;28;20362;-79
2024/01/27 02:16:28;;;;;;;;;;;5.50;99.90;;;;;;5090400;28;20264;-79
2024/01/27 02:18:53;;;;;;;;;;;5.50;99.90;;;;;;5072529;28;20117;-79
2024/01/27 02:21:19;;;;;;;;;;;5.40;99.90;;;;;;5088663;28;19935;-80
2024/01/27 02:23:44;;;;;;;;;;;5.40;99.90;;;;;;5088435;28;20526;-80
2024/01/27 02:26:10;;;;;;;;;;;5.60;99.90;;;;;;5086919;28;19927;-79
2024/01/27 02:28:39;;;;;;;;;;;5.50;99.90;;;;;;5108975;28;19930;-80
2024/01/27 02:31:04;;;;;;;;;;;5.40;99.90;;;;;;5089727;28;20343;-79
2024/01/27 02:33:30;;;;;;;;;;;5.40;99.90;;;;;;5087772;28;19931;-79
2024/01/27 02:35:56;;;;;;;;;;;5.50;99.90;;;;;;5089471;28;19976;-80
2024/01/27 02:38:21;;;;;;;;;;;5.20;99.90;;;;;;5068760;28;19971;-80
2024/01/27 02:40:47;;;;;;;;;;;5.20;99.90;;;;;;5089442;28;20014;-79
2024/01/27 02:43:13;;;;;;;;;;;5.20;99.90;;;;;;5088978;28;20375;-78
2024/01/27 02:45:38;;;;;;;;;;;5.30;99.90;;;;;;5088797;28;19927;-80
2024/01/27 02:48:04;;;;;;;;;;;5.50;99.90;;;;;;5088842;28;19935;-80
2024/01/27 02:50:29;;;;;;;;;;;5.20;99.90;;;;;;5089614;28;20410;-79
2024/01/27 02:52:55;;;;;;;;;;;5.10;99.90;;;;;;5088569;28;20162;-78
2024/01/27 02:55:21;;;;;;;;;;;5.10;99.90;;;;;;5071887;28;20371;-79
2024/01/27 02:57:46;;;;;;;;;;;5.10;99.90;;;;;;5102386;28;19928;-79
2024/01/27 03:00:12;;;;;;;;;;;5.10;99.90;;;;;;5087387;28;20398;-79
2024/01/27 03:02:38;;;;;;;;;;;5.20;99.90;;;;;;5082253;28;19943;-79
2024/01/27 03:05:03;;;;;;;;;;;5.20;99.90;;;;;;5071591;28;19924;-79
2024/01/27 03:07:29;;;;;;;;;;;5.10;99.90;;;;;;5100348;27;19928;-80
2024/01/27 03:09:55;;;;;;;;;;;5.50;99.90;;;;;;5072868;28;19927;-80
2024/01/27 03:12:22;;;;;;;;;;;5.20;99.90;;;;;;5053781;28;19923;-79
2024/01/27 03:14:49;;;;;;;;;;;5.30;99.90;;;;;;5070036;28;19927;-79
2024/01/27 03:17:15;;;;;;;;;;;5.10;99.90;;;;;;5080340;28;19983;-79
2024/01/27 03:19:42;;;;;;;;;;;5.20;99.90;;;;;;5070866;28;19967;-79
2024/01/27 03:22:08;;;;;;;;;;;5.50;99.90;;;;;;5069472;28;19924;-80
2024/01/27 03:24:33;;;;;;;;;;;5.40;99.90;;;;;;5087996;28;19928;-79
2024/01/27 03:26:59;;;;;;;;;;;5.50;99.90;;;;;;5068899;28;19931;-79
2024/01/27 03:29:24;;;;;;;;;;;5.20;99.90;;;;;;5087841;28;20022;-79
2024/01/27 03:31:50;;;;;;;;;;;5.00;99.90;;;;;;5087871;28;19931;-80
2024/01/27 03:34:17;;;;;;;;;;;5.40;99.90;;;;;;5083708;28;19932;-79
2024/01/27 03:36:43;;;;;;;;;;;5.10;99.90;;;;;;5087740;28;20435;-79
2024/01/27 03:39:08;;;;;;;;;;;5.40;99.90;;;;;;5050941;28;19945;-79
2024/01/27 03:41:34;;;;;;;;;;;5.10;99.90;;;;;;5070695;28;20302;-79
2024/01/27 03:43:59;;;;;;;;;;;5.10;99.90;;;;;;5085420;28;19930;-79
2024/01/27 03:46:31;;;;;;;;;;;5.00;99.90;;;;;;5101601;28;19947;-79
2024/01/27 03:48:56;;;;;;;;;;;5.60;99.90;;;;;;5058300;28;19928;-79
2024/01/27 03:51:23;;;;;;;;;;;4.90;99.90;;;;;;5069499;28;19949;-79
2024/01/27 03:53:48;;;;;;;;;;;5.10;99.90;;;;;;5067798;28;19936;-79
2024/01/27 03:56:14;;;;;;;;;;;5.20;99.90;;;;;;5088106;28;19993;-79
2024/01/27 03:58:39;;;;;;;;;;;4.90;99.90;;;;;;5084497;28;20013;-79
2024/01/27 04:01:05;;;;;;;;;;;4.80;99.90;;;;;;5086845;28;20018;-79
2024/01/27 04:03:31;;;;;;;;;;;4.90;99.90;;;;;;5086924;28;19977;-79
2024/01/27 04:05:58;;;;;;;;;;;5.00;99.90;;;;;;5085717;28;19986;-79
2024/01/27 04:08:23;;;;;;;;;;;4.70;99.90;;;;;;5069161;28;20454;-79
2024/01/27 04:10:49;;;;;;;;;;;5.30;99.90;;;;;;5086727;28;19928;-78
2024/01/27 04:13:15;;;;;;;;;;;4.70;99.90;;;;;;5060608;28;19931;-79
2024/01/27 04:15:41;;;;;;;;;;;5.20;99.90;;;;;;5088687;28;19954;-79
2024/01/27 04:18:08;;;;;;;;;;;5.00;99.90;;;;;;5087986;28;19924;-79
2024/01/27 04:20:34;;;;;;;;;;;4.90;99.90;;;;;;5100226;28;20347;-79
2024/01/27 04:23:00;;;;;;;;;;;4.90;99.90;;;;;;5101182;28;19979;-79
2024/01/27 04:25:31;;;;;;;;;;;5.10;99.90;;;;;;5083106;28;20436;-80
2024/01/27 04:27:56;;;;;;;;;;;5.00;99.90;;;;;;5083631;28;19931;-79
2024/01/27 04:30:22;;;;;;;;;;;4.70;99.90;;;;;;5065665;28;20287;-79
2024/01/27 04:32:49;;;;;;;;;;;4.80;99.90;;;;;;5083225;28;19928;-79
2024/01/27 04:35:18;;;;;;;;;;;4.80;99.90;;;;;;5050501;28;20022;-78
2024/01/27 04:37:45;;;;;;;;;;;4.90;99.90;;;;;;5070091;27;20491;-79
2024/01/27 04:40:11;;;;;;;;;;;4.90;99.90;;;;;;5067424;28;19927;-79
2024/01/27 04:42:38;;;;;;;;;;;4.50;99.90;;;;;;5086721;28;19935;-79
2024/01/27 04:45:04;;;;;;;;;;;4.70;99.90;;;;;;5087658;28;20430;-79
2024/01/27 04:47:30;;;;;;;;;;;4.80;99.90;;;;;;5086356;28;19927;-79
2024/01/27 04:49:57;;;;;;;;;;;4.80;99.90;;;;;;5070295;28;20282;-79
2024/01/27 04:52:23;;;;;;;;;;;4.50;99.90;;;;;;5068596;28;20025;-79
2024/01/27 04:54:50;;;;;;;;;;;4.70;99.90;;;;;;5088418;27;19944;-79
2024/01/27 04:57:16;;;;;;;;;;;4.40;99.90;;;;;;5086147;28;19971;-79
2024/01/27 04:59:41;;;;;;;;;;;5.00;99.90;;;;;;5074376;28;19939;-79
2024/01/27 05:02:07;;;;;;;;;;;4.60;99.90;;;;;;5087570;27;19927;-79
2024/01/27 05:04:32;;;;;;;;;;;4.90;99.90;;;;;;5070775;28;19976;-79
2024/01/27 05:06:58;;;;;;;;;;;4.70;99.90;;;;;;5084588;28;19934;-79
2024/01/27 05:09:25;;;;;;;;;;;4.80;99.90;;;;;;5069823;28;20480;-80
2024/01/27 05:11:52;;;;;;;;;;;4.50;99.90;;;;;;5084767;27;19934;-80
2024/01/27 05:14:18;;;;;;;;;;;4.70;99.90;;;;;;5086401;28;19969;-79
2024/01/27 05:16:43;;;;;;;;;;;4.60;99.90;;;;;;5086244;28;19932;-79
2024/01/27 05:19:10;;;;;;;;;;;4.40;99.90;;;;;;5084328;28;20546;-80
2024/01/27 05:21:39;;;;;;;;;;;4.60;99.90;;;;;;5084877;28;20023;-79
2024/01/27 05:24:06;;;;;;;;;;;4.70;99.90;;;;;;5076357;28;20014;-78
2024/01/27 05:26:31;;;;;;;;;;;4.70;99.90;;;;;;5069022;28;20625;-79
2024/01/27 05:28:57;;;;;;;;;;;4.50;99.90;;;;;;5053274;28;20111;-79
2024/01/27 05:31:23;;;;;;;;;;;4.70;99.90;;;;;;5068374;28;19928;-78
2024/01/27 05:33:49;;;;;;;;;;;4.50;99.90;;;;;;5084970;27;19954;-78
2024/01/27 05:36:14;;;;;;;;;;;4.60;99.90;;;;;;5083582;27;19928;-79
2024/01/27 05:38:40;;;;;;;;;;;4.90;99.90;;;;;;5069360;28;19978;-78
2024/01/27 05:41:07;;;;;;;;;;;4.80;99.90;;;;;;5101167;27;19984;-78
2024/01/27 05:43:33;;;;;;;;;;;4.70;99.90;;;;;;5085474;28;19928;-79
2024/01/27 05:45:59;;;;;;;;;;;4.80;99.90;;;;;;5085283;28;19923;-79
2024/01/27 05:48:25;;;;;;;;;;;5.00;99.90;;;;;;5082437;28;19961;-79
2024/01/27 05:50:57;;;;;;;;;;;4.70;99.90;;;;;;5082907;28;19935;-79
2024/01/27 05:53:22;;;;;;;;;;;4.90;99.90;;;;;;5085766;28;20378;-79
2024/01/27 05:55:48;;;;;;;;;;;5.00;99.90;;;;;;5085505;28;19924;-79
2024/01/27 05:58:14;;;;;;;;;;;4.60;99.90;;;;;;5066860;28;20287;-80
2024/01/27 06:00:39;;;;;;;;;;;5.00;99.90;;;;;;5082276;28;19928;-79
2024/01/27 06:03:05;;;;;;;;;;;5.00;99.90;;;;;;5086168;28;20082;-79
2024/01/27 06:05:31;;;;;;;;;;;4.90;99.90;;;;;;5084649;28;19950;-79
2024/01/27 06:07:56;;;;;;;;;;;4.90;99.90;;;;;;5065262;28;19932;-79
2024/01/27 06:10:23;;;;;;;;;;;4.90;99.90;;;;;;5068649;28;19947;-80
2024/01/27 06:12:49;;;;;;;;;;;5.00;99.90;;;;;;5100625;27;20061;-78
2024/01/27 06:15:15;;;;;;;;;;;5.00;99.90;;;;;;5070093;27;20018;-79
2024/01/27 06:17:44;;;;;;;;;;;4.90;99.90;;;;;;5085131;28;19931;-78
2024/01/27 06:20:09;;;;;;;;;;;4.80;99.90;;;;;;5084908;28;20644;-79
2024/01/27 06:22:35;;;;;;;;;;;5.10;99.90;;;;;;5083420;28;19932;-78
2024/01/27 06:25:07;;;;;;;;;;;4.70;99.90;;;;;;5085142;28;19956;-80
2024/01/27 06:27:33;;;;;;;;;;;4.90;99.90;;;;;;5068735;28;19923;-79
2024/01/27 06:29:59;;;;;;;;;;;5.00;99.90;;;;;;5064273;28;19935;-78
2024/01/27 06:32:24;;;;;;;;;;;4.90;99.90;;;;;;5083308;28;19924;-79
2024/01/27 06:34:50;;;;;;;;;;;5.80;99.90;;;;;;5102283;27;21050;-79
2024/01/27 06:37:15;;;;;;;;;;;4.90;99.90;;;;;;5068910;28;19935;-80
2024/01/27 06:39:41;;;;;;;;;;;5.00;99.90;;;;;;5085759;28;20310;-78
2024/01/27 06:42:07;;;;;;;;;;;4.90;99.90;;;;;;5084669;28;19990;-80
2024/01/27 06:44:32;;;;;;;;;;;4.80;99.90;;;;;;5085047;28;20375;-78
2024/01/27 06:46:58;;;;;;;;;;;5.00;99.90;;;;;;5066293;28;19939;-83
2024/01/27 06:49:24;;;;;;;;;;;4.70;99.90;;;;;;5070573;28;19977;-84
2024/01/27 06:51:55;;;;;;;;;;;4.70;99.90;;;;;;5071795;28;19927;-75
2024/01/27 06:54:21;;;;;;;;;;;5.10;99.90;;;;;;5090390;28;20290;-82
2024/01/27 06:56:47;;;;;;;;;;;5.00;99.90;;;;;;5090374;28;19973;-87
2024/01/27 06:59:12;;;;;;;;;;;5.10;99.90;;;;;;5053849;28;19931;-88
2024/01/27 07:01:38;;;;;;;;;;;6.60;99.90;;;;;;5074203;28;19969;-86
2024/01/27 07:04:05;;;;;;;;;;;5.60;99.90;;;;;;5072012;28;19930;-89
2024/01/27 07:06:30;;;;;;;;;;;4.80;99.90;;;;;;5058337;28;19942;-87
2024/01/27 07:08:56;;;;;;;;;;;4.70;99.90;;;;;;5089883;28;19924;-91
2024/01/27 07:11:21;;;;;;;;;;;6.50;99.90;;;;;;5060554;28;19934;-89
2024/01/27 07:13:53;;;;;;;;;;;6.10;99.90;;;;;;5062304;27;19935;-88
2024/01/27 07:16:19;;;;;;;;;;;4.90;99.90;;;;;;5056746;28;19923;-84
2024/01/27 07:18:46;;;;;;;;;;;4.90;99.90;;;;;;5073599;28;19934;-78
2024/01/27 07:21:16;;;;;;;;;;;4.90;99.90;;;;;;5086915;28;20452;-79
2024/01/27 07:23:44;;;;;;;;;;;5.20;99.90;;;;;;5089069;28;19920;-79
2024/01/27 07:26:10;;;;;;;;;;;5.00;99.90;;;;;;5106302;27;19935;-79
2024/01/27 07:28:36;;;;;;;;;;;4.90;99.90;;;;;;5072598;28;19927;-78
2024/01/27 07:31:02;;;;;;;;;;;4.70;99.90;;;;;;5069372;27;19920;-78
2024/01/27 07:33:31;;;;;;;;;;;4.80;99.90;;;;;;5103409;28;19924;-77
2024/01/27 07:35:56;;;;;;;;;;;5.00;99.90;;;;;;5070120;28;19946;-77
2024/01/27 07:38:22;;;;;;;;;;;4.60;99.90;;;;;;5088737;28;20088;-78
2024/01/27 07:40:49;;;;;;;;;;;4.60;99.90;;;;;;5085405;28;19928;-77
2024/01/27 07:43:14;;;;;;;;;;;4.80;99.90;;;;;;5084979;28;19935;-78
2024/01/27 07:45:41;;;;;;;;;;;4.80;99.90;;;;;;5086924;28;20386;-77
2024/01/27 07:48:07;;;;;;;;;;;4.60;99.90;;;;;;5101388;28;20405;-77
2024/01/27 07:50:34;;;;;;;;;;;5.00;99.90;;;;;;5067122;28;19998;-81
2024/01/27 07:53:19;;;;;;;;;;;5.00;99.90;;;;;;5102861;28;19958;-83
2024/01/27 07:55:45;;;;;;;;;;;4.90;99.90;;;;;;5063280;28;20015;-80
2024/01/27 07:58:10;;;;;;;;;;;4.70;99.90;;;;;;5098875;28;20478;-80
2024/01/27 08:00:37;;;;;;;;;;;4.90;99.90;;;;;;5087175;28;19926;-80
2024/01/27 08:03:02;;;;;;;;;;;5.10;99.90;;;;;;5069757;28;19923;-79
2024/01/27 08:05:28;;;;;;;;;;;5.00;99.90;;;;;;5087297;28;19935;-80
2024/01/27 08:07:54;;;;;;;;;;;5.10;99.90;;;;;;5070850;28;19974;-79
2024/01/27 08:10:19;;;;;;;;;;;5.10;99.90;;;;;;5108945;28;20256;-78
2024/01/27 08:12:45;;;;;;;;;;;5.10;99.90;;;;;;5074495;28;20056;-78
2024/01/27 08:15:11;;;;;;;;;;;5.10;99.90;;;;;;5091627;28;19927;-79
2024/01/27 08:17:37;;;;;;;;;;;5.20;99.90;;;;;;5089924;28;20274;-78
2024/01/27 08:20:03;;;;;;;;;;;4.90;99.90;;;;;;5091142;28;19928;-78
2024/01/27 08:22:28;;;;;;;;;;;5.10;99.90;;;;;;5088770;28;19936;-78
2024/01/27 08:24:54;;;;;;;;;;;5.00;99.90;;;;;;5070842;28;19934;-78
2024/01/27 08:27:21;;;;;;;;;;;4.90;99.90;;;;;;5072385;27;19924;-78
2024/01/27 08:29:47;;;;;;;;;;;5.00;99.90;;;;;;5071912;28;19923;-78
2024/01/27 08:32:13;;;;;;;;;;;5.00;99.90;;;;;;5090159;28;19981;-78
2024/01/27 08:34:39;;;;;;;;;;;4.80;99.90;;;;;;5075501;28;19924;-78
2024/01/27 08:37:13;;;;;;;;;;;4.90;99.90;;;;;;5091100;28;20027;-79
2024/01/27 08:39:40;;;;;;;;;;;5.00;99.90;;;;;;5088713;28;19927;-79
2024/01/27 08:42:06;;;;;;;;;;;5.10;99.90;;;;;;5088881;28;19939;-77
2024/01/27 08:44:31;;;;;;;;;;;5.30;99.90;;;;;;5092240;28;19920;-77
2024/01/27 08:46:57;;;;;;;;;;;5.30;99.90;;;;;;5087775;28;19923;-78
2024/01/27 08:49:22;;;;;;;;;;;5.40;99.90;;;;;;5107403;27;19927;-79
2024/01/27 08:51:48;;;;;;;;;;;5.30;99.90;;;;;;5086249;28;19924;-81
2024/01/27 08:54:13;;;;;;;;;;;5.10;99.90;;;;;;5063708;28;19923;-81
2024/01/27 08:56:40;;;;;;;;;;;5.30;99.90;;;;;;5073871;28;20289;-78
2024/01/27 08:59:06;;;;;;;;;;;5.90;99.90;;;;;;5088242;28;19927;-78
2024/01/27 09:01:33;;;;;;;;;;;7.10;99.90;;;;;;5072802;28;19931;-83
2024/01/27 09:03:58;;;;;;;;;;;7.40;99.90;;;;;;5090232;28;19931;-81
2024/01/27 09:06:24;;;;;;;;;;;8.20;99.90;;;;;;5060679;28;19923;-79
2024/01/27 09:08:50;;;;;;;;;;;8.20;99.90;;;;;;5090650;28;20167;-85
2024/01/27 09:11:15;;;;;;;;;;;8.40;99.90;;;;;;5083524;28;20286;-78
2024/01/27 09:13:41;;;;;;;;;;;8.50;99.90;;;;;;5107157;27;19947;-77
2024/01/27 09:16:07;;;;;;;;;;;8.10;99.90;;;;;;5070116;28;19924;-77
2024/01/27 09:18:33;;;;;;;;;;;8.00;99.90;;;;;;5105153;27;21626;-77
2024/01/27 09:20:58;;;;;;;;;;;7.90;99.90;;;;;;5066717;28;19924;-78
2024/01/27 09:23:24;;;;;;;;;;;8.00;99.90;;;;;;5087601;28;20171;-77
2024/01/27 09:25:49;;;;;;;;;;;7.70;99.90;;;;;;5070369;28;19924;-78
2024/01/27 09:28:15;;;;;;;;;;;7.20;99.90;;;;;;5087868;27;20285;-78
2024/01/27 09:30:41;;;;;;;;;;;7.30;99.90;;;;;;5102425;27;19943;-76
2024/01/27 09:33:07;;;;;;;;;;;7.50;99.90;;;;;;5067024;27;19923;-82
2024/01/27 09:35:32;;;;;;;;;;;7.30;99.90;;;;;;5087285;28;19935;-78
2024/01/27 09:37:58;;;;;;;;;;;7.50;99.90;;;;;;5067488;28;19992;-77
2024/01/27 09:40:29;;;;;;;;;;;7.30;99.90;;;;;;5055923;28;19923;-75
2024/01/27 09:42:58;;;;;;;;;;;7.40;99.90;;;;;;5083406;28;19927;-78
2024/01/27 09:45:24;;;;;;;;;;;7.90;99.90;;;;;;5085702;28;20501;-77
2024/01/27 09:47:51;;;;;;;;;;;8.00;99.90;;;;;;5069589;28;20027;-79
2024/01/27 09:50:17;;;;;;;;;;;8.00;99.90;;;;;;5088736;28;19932;-77
2024/01/27 09:52:43;;;;;;;;;;;8.00;99.90;;;;;;5101630;27;19979;-78
2024/01/27 09:55:08;;;;;;;;;;;7.80;99.90;;;;;;5087745;28;20458;-79
2024/01/27 09:57:39;;;;;;;;;;;7.90;99.90;;;;;;5102625;28;20015;-78
2024/01/27 10:00:10;;;;;;;;;;;8.10;99.90;;;;;;5085564;27;19923;-77
2024/01/27 10:02:36;;;;;;;;;;;7.90;99.90;;;;;;5067976;28;19974;-78
2024/01/27 10:05:01;;;;;;;;;;;7.80;99.90;;;;;;5082024;28;20002;-78
2024/01/27 10:07:27;;;;;;;;;;;8.20;99.90;;;;;;5087058;28;19924;-78
2024/01/27 10:09:53;;;;;;;;;;;8.60;99.90;;;;;;5086746;27;20332;-78
2024/01/27 10:12:20;;;;;;;;;;;9.10;99.90;;;;;;5067946;28;20475;-78
2024/01/27 10:14:48;;;;;;;;;;;9.60;99.90;;;;;;5085753;28;19938;-78
2024/01/27 10:17:26;;;;;;;;;;;10.00;98.60;;;;;;5104077;27;20476;-82
2024/01/27 10:20:03;;;;;;;;;;;10.20;97.70;;;;;;5084172;28;19931;-78
2024/01/27 10:22:36;;;;;;;;;;;10.90;96.90;;;;;;5082555;28;19931;-82
2024/01/27 10:25:02;;;;;;;;;;;10.90;94.50;;;;;;5069135;28;19927;-85
2024/01/27 10:27:29;;;;;;;;;;;10.50;92.50;;;;;;5088538;27;19923;-90
2024/01/27 10:29:57;;;;;;;;;;;10.70;94.70;;;;;;5072029;28;19920;-86
2024/01/27 10:32:26;;;;;;;;;;;10.50;93.50;;;;;;5058296;28;19935;-87
2024/01/27 10:35:10;;;;;;;;;;;9.60;94.90;;;;;;5083612;28;20309;-79
2024/01/27 10:37:36;;;;;;;;;;;9.40;98.60;;;;;;5082298;27;19933;-81
2024/01/27 10:40:03;;;;;;;;;;;10.10;99.10;;;;;;5084349;28;20559;-82
2024/01/27 10:42:30;;;;;;;;;;;10.10;97.40;;;;;;5081877;28;19923;-82
2024/01/27 10:45:02;;;;;;;;;;;10.10;96.30;;;;;;5065750;28;19927;-82
2024/01/27 10:47:29;;;;;;;;;;;10.20;96.10;;;;;;5080372;28;19979;-84
2024/01/27 10:49:56;;;;;;;;;;;9.80;96.70;;;;;;5093293;28;20002;-79
2024/01/27 10:52:38;;;;;;;;;;;10.60;97.50;;;;;;5083361;27;19932;-78
2024/01/27 10:55:07;;;;;;;;;;;11.20;96.20;;;;;;5066727;28;19930;-80
2024/01/27 10:57:33;;;;;;;;;;;12.10;93.60;;;;;;5083925;28;20365;-80
2024/01/27 11:00:00;;;;;;;;;;;12.60;90.90;;;;;;5069755;28;19928;-80
2024/01/27 11:02:26;;;;;;;;;;;12.40;83.10;;;;;;5106659;28;19939;-80
2024/01/27 11:04:54;;;;;;;;;;;12.40;87.60;;;;;;5088547;28;19927;-80
2024/01/27 11:07:22;;;;;;;;;;;12.20;83.00;;;;;;5101708;28;19977;-80
2024/01/27 11:09:50;;;;;;;;;;;11.90;88.70;;;;;;5089627;28;20012;-80
2024/01/27 11:12:17;;;;;;;;;;;11.80;86.30;;;;;;5088573;28;20456;-80
2024/01/27 11:14:45;;;;;;;;;;;11.80;84.80;;;;;;5068677;28;19934;-79
2024/01/27 11:17:10;;;;;;;;;;;11.10;89.60;;;;;;5071272;28;20029;-80
2024/01/27 11:19:36;;;;;;;;;;;10.50;93.70;;;;;;5089062;28;20030;-80
2024/01/27 11:22:02;;;;;;;;;;;9.90;95.40;;;;;;5106931;28;19920;-80
2024/01/27 11:24:27;;;;;;;;;;;9.20;97.50;;;;;;5106076;28;19935;-79
2024/01/27 11:26:59;;;;;;;;;;;9.30;98.60;;;;;;5107465;28;19939;-80
2024/01/27 11:29:26;;;;;;;;;;;8.90;99.90;;;;;;5086821;28;19928;-79
2024/01/27 11:31:52;;;;;;;;;;;8.90;99.90;;;;;;5088774;28;20061;-79
2024/01/27 11:34:19;;;;;;;;;;;8.40;99.90;;;;;;5068300;28;20394;-79
2024/01/27 11:36:45;;;;;;;;;;;8.70;99.90;;;;;;5105206;28;19928;-80
2024/01/27 11:39:27;;;;;;;;;;;8.40;99.90;;;;;;5087767;28;19928;-79
2024/01/27 11:41:53;;;;;;;;;;;8.30;99.90;;;;;;5106821;28;20294;-80
2024/01/27 11:44:20;;;;;;;;;;;8.00;99.90;;;;;;5085694;28;20046;-78
2024/01/27 11:46:46;;;;;;;;;;;8.00;99.90;;;;;;5086845;28;19927;-79
2024/01/27 11:49:16;;;;;;;;;;;8.10;99.90;;;;;;5106820;28;19953;-79
2024/01/27 11:51:41;;;;;;;;;;;7.70;99.90;;;;;;5069217;28;19929;-79
2024/01/27 11:54:07;;;;;;;;;;;8.00;99.90;;;;;;5087584;28;20058;-79
2024/01/27 11:56:32;;;;;;;;;;;8.10;99.90;;;;;;5071669;28;19999;-79
2024/01/27 11:58:58;;;;;;;;;;;8.00;99.90;;;;;;5071022;28;19928;-79
2024/01/27 12:01:24;;;;;;;;;;;7.60;99.90;;;;;;5086760;28;19991;-79
2024/01/27 12:03:50;;;;;;;;;;;7.90;99.90;;;;;;5086379;28;19928;-80
2024/01/27 12:06:16;;;;;;;;;;;7.90;99.90;;;;;;5085460;28;19954;-80
2024/01/27 12:08:47;;;;;;;;;;;7.90;99.90;;;;;;5087576;28;19934;-79
2024/01/27 12:11:14;;;;;;;;;;;7.50;99.90;;;;;;5088899;28;19930;-80
2024/01/27 12:13:40;;;;;;;;;;;7.70;99.90;;;;;;5072008;28;20039;-80
2024/01/27 12:16:06;;;;;;;;;;;7.80;99.90;;;;;;5069328;28;20342;-81
2024/01/27 12:18:32;;;;;;;;;;;7.50;99.90;;;;;;5090223;28;19938;-79
2024/01/27 12:20:57;;;;;;;;;;;7.40;99.90;;;;;;5072357;28;19924;-80
2024/01/27 12:23:23;;;;;;;;;;;7.50;99.90;;;;;;5088882;28;19962;-80
2024/01/27 12:25:55;;;;;;;;;;;7.40;99.90;;;;;;5056171;28;20281;-80
2024/01/27 12:28:22;;;;;;;;;;;7.30;99.90;;;;;;5086437;28;19975;-79
2024/01/27 12:30:48;;;;;;;;;;;7.50;99.90;;;;;;5090614;28;19927;-80
2024/01/27 12:33:14;;;;;;;;;;;7.70;99.90;;;;;;5089878;28;19928;-80
2024/01/27 12:35:40;;;;;;;;;;;7.30;99.90;;;;;;5073941;28;20047;-81
2024/01/27 12:38:06;;;;;;;;;;;7.30;99.90;;;;;;5085918;28;19928;-81
2024/01/27 12:40:32;;;;;;;;;;;7.50;99.90;;;;;;5087750;28;19930;-80
2024/01/27 12:42:57;;;;;;;;;;;7.60;99.90;;;;;;5088389;28;19924;-80
2024/01/27 12:45:24;;;;;;;;;;;7.30;99.90;;;;;;5090844;28;20374;-80
2024/01/27 12:47:51;;;;;;;;;;;7.30;99.90;;;;;;5086626;28;19973;-80
2024/01/27 12:50:17;;;;;;;;;;;7.60;99.90;;;;;;5073221;28;20393;-80
2024/01/27 12:52:42;;;;;;;;;;;7.60;99.90;;;;;;5088451;28;19928;-80
2024/01/27 12:55:08;;;;;;;;;;;7.50;99.90;;;;;;5092789;28;19927;-81
2024/01/27 12:57:34;;;;;;;;;;;7.60;99.90;;;;;;5094751;28;19935;-81
2024/01/27 13:00:00;;;;;;;;;;;7.70;99.90;;;;;;5108692;28;19931;-80
2024/01/27 13:02:26;;;;;;;;;;;7.50;99.90;;;;;;5105459;28;19936;-80
2024/01/27 13:04:57;;;;;;;;;;;7.40;99.90;;;;;;5077329;28;19951;-80
2024/01/27 13:07:22;;;;;;;;;;;7.30;99.90;;;;;;5111014;27;20290;-80
2024/01/27 13:09:48;;;;;;;;;;;7.40;99.90;;;;;;5071835;28;20290;-79
2024/01/27 13:12:14;;;;;;;;;;;7.20;99.90;;;;;;5091519;28;19928;-80
2024/01/27 13:14:39;;;;;;;;;;;7.50;99.90;;;;;;5070698;28;19923;-80
2024/01/27 13:17:11;;;;;;;;;;;7.30;99.90;;;;;;5092397;27;19979;-79
2024/01/27 13:19:37;;;;;;;;;;;7.40;99.90;;;;;;5092864;28;19991;-80
2024/01/27 13:22:03;;;;;;;;;;;7.60;99.90;;;;;;5074221;28;19977;-80
2024/01/27 13:24:28;;;;;;;;;;;7.60;99.90;;;;;;5064897;28;19959;-81
2024/01/27 13:26:54;;;;;;;;;;;7.50;99.90;;;;;;5072657;28;20322;-80
2024/01/27 13:29:20;;;;;;;;;;;7.30;99.90;;;;;;5092363;28;19928;-80
2024/01/27 13:31:46;;;;;;;;;;;7.30;99.90;;;;;;5107865;28;20290;-80
2024/01/27 13:34:12;;;;;;;;;;;7.50;99.90;;;;;;5110223;28;20410;-81
2024/01/27 13:36:38;;;;;;;;;;;7.50;99.90;;;;;;5074400;27;19927;-80
2024/01/27 13:39:04;;;;;;;;;;;7.40;99.90;;;;;;5091526;28;19932;-81
2024/01/27 13:41:30;;;;;;;;;;;7.30;99.90;;;;;;5088181;28;19932;-81
2024/01/27 13:43:58;;;;;;;;;;;7.30;99.90;;;;;;5108373;28;19924;-81
2024/01/27 13:46:24;;;;;;;;;;;7.60;99.90;;;;;;5090312;28;19980;-80
2024/01/27 13:48:50;;;;;;;;;;;7.10;99.90;;;;;;5091147;28;19927;-80
2024/01/27 13:51:16;;;;;;;;;;;7.50;99.90;;;;;;5107618;28;19928;-81
2024/01/27 13:53:42;;;;;;;;;;;7.10;99.90;;;;;;5072035;28;19934;-80
2024/01/27 13:56:07;;;;;;;;;;;7.50;99.90;;;;;;5088848;28;20383;-80
2024/01/27 13:58:33;;;;;;;;;;;7.50;99.90;;;;;;5090914;28;20274;-81
2024/01/27 14:00:59;;;;;;;;;;;7.50;99.90;;;;;;5073880;28;19926;-81
2024/01/27 14:03:24;;;;;;;;;;;7.10;99.90;;;;;;5089337;28;20014;-81
2024/01/27 14:05:50;;;;;;;;;;;7.50;99.90;;;;;;5088386;28;19924;-80
2024/01/27 14:08:17;;;;;;;;;;;7.30;99.90;;;;;;5091567;28;19927;-80
2024/01/27 14:10:43;;;;;;;;;;;7.10;99.90;;;;;;5090947;28;19927;-80
2024/01/27 14:13:09;;;;;;;;;;;7.50;99.90;;;;;;5089380;28;19927;-80
2024/01/27 14:15:36;;;;;;;;;;;7.10;99.90;;;;;;5072448;28;20398;-81
2024/01/27 14:18:02;;;;;;;;;;;7.10;99.90;;;;;;5108355;28;19924;-76
2024/01/27 14:20:29;;;;;;;;;;;7.10;99.90;;;;;;5088471;28;19928;-81
2024/01/27 14:22:55;;;;;;;;;;;6.90;99.90;;;;;;5106463;27;20010;-80